sensor_id;sensor_type;location;lat;lon;timestamp;pressure;altitude;pressure_sealevel;temperature;humidity
25238;BME280;13185;50.872;5.306;2023-06-14T00:01:41;100947.13;;;21.22;43.87
25238;BME280;13185;50.872;5.306;2023-06-14T00:04:06;100947.81;;;21.16;44.10
25238;BME280;13185;50.872;5.306;2023-06-14T00:06:34;100951.19;;;21.10;44.37
25238;BME280;13185;50.872;5.306;2023-06-14T00:08:59;100949.44;;;21.00;44.30
25238;BME280;13185;50.872;5.306;2023-06-14T00:11:25;100951.13;;;20.93;44.79
25238;BME280;13185;50.872;5.306;2023-06-14T00:13:52;100947.66;;;20.83;45.24
25238;BME280;13185;50.872;5.306;2023-06-14T00:16:18;100941.19;;;20.76;45.86
25238;BME280;13185;50.872;5.306;2023-06-14T00:18:45;100951.19;;;20.67;45.73
25238;BME280;13185;50.872;5.306;2023-06-14T00:21:11;100947.22;;;20.62;46.03
25238;BME280;13185;50.872;5.306;2023-06-14T00:23:37;100948.75;;;20.56;46.31
25238;BME280;13185;50.872;5.306;2023-06-14T00:26:03;100945.81;;;20.50;46.21
25238;BME280;13185;50.872;5.306;2023-06-14T00:28:28;100949.19;;;20.43;46.43
25238;BME280;13185;50.872;5.306;2023-06-14T00:30:54;100948.78;;;20.38;47.02
25238;BME280;13185;50.872;5.306;2023-06-14T00:33:20;100955.00;;;20.31;47.06
25238;BME280;13185;50.872;5.306;2023-06-14T00:35:45;100942.06;;;20.25;47.12
25238;BME280;13185;50.872;5.306;2023-06-14T00:38:12;100942.50;;;20.20;47.22
25238;BME280;13185;50.872;5.306;2023-06-14T00:40:39;100949.47;;;20.14;47.77
25238;BME280;13185;50.872;5.306;2023-06-14T00:43:05;100950.78;;;20.10;47.90
25238;BME280;13185;50.872;5.306;2023-06-14T00:45:31;100948.72;;;20.04;48.31
25238;BME280;13185;50.872;5.306;2023-06-14T00:48:01;100957.03;;;20.03;48.81
25238;BME280;13185;50.872;5.306;2023-06-14T00:50:28;100954.25;;;19.95;49.14
25238;BME280;13185;50.872;5.306;2023-06-14T00:52:55;100960.13;;;19.90;48.77
25238;BME280;13185;50.872;5.306;2023-06-14T00:55:21;100960.78;;;19.84;48.61
25238;BME280;13185;50.872;5.306;2023-06-14T00:57:48;100955.97;;;19.78;49.28
25238;BME280;13185;50.872;5.306;2023-06-14T01:00:14;100951.00;;;19.73;49.62
25238;BME280;13185;50.872;5.306;2023-06-14T01:02:40;100958.06;;;19.66;49.90
25238;BME280;13185;50.872;5.306;2023-06-14T01:05:08;100955.66;;;19.63;50.36
25238;BME280;13185;50.872;5.306;2023-06-14T01:10:35;100953.47;;;19.49;51.00
25238;BME280;13185;50.872;5.306;2023-06-14T01:13:19;100954.22;;;19.41;50.83
25238;BME280;13185;50.872;5.306;2023-06-14T01:15:47;100959.97;;;19.38;51.38
25238;BME280;13185;50.872;5.306;2023-06-14T01:18:14;100961.44;;;19.32;51.67
25238;BME280;13185;50.872;5.306;2023-06-14T01:20:44;100958.19;;;19.29;52.11
25238;BME280;13185;50.872;5.306;2023-06-14T01:23:11;100967.63;;;19.25;52.40
25238;BME280;13185;50.872;5.306;2023-06-14T01:25:40;100957.41;;;19.19;52.69
25238;BME280;13185;50.872;5.306;2023-06-14T01:28:12;100960.38;;;19.16;52.85
25238;BME280;13185;50.872;5.306;2023-06-14T01:30:40;100964.59;;;19.10;53.35
25238;BME280;13185;50.872;5.306;2023-06-14T01:33:16;100961.47;;;19.05;53.59
25238;BME280;13185;50.872;5.306;2023-06-14T01:35:50;100962.25;;;18.97;54.16
25238;BME280;13185;50.872;5.306;2023-06-14T01:38:23;100974.25;;;18.95;55.22
25238;BME280;13185;50.872;5.306;2023-06-14T01:40:49;100965.69;;;18.90;55.46
25238;BME280;13185;50.872;5.306;2023-06-14T01:43:18;100976.16;;;18.85;55.36
25238;BME280;13185;50.872;5.306;2023-06-14T01:45:45;100973.91;;;18.80;55.38
25238;BME280;13185;50.872;5.306;2023-06-14T01:48:11;100969.47;;;18.79;55.59
25238;BME280;13185;50.872;5.306;2023-06-14T01:50:39;100976.34;;;18.73;55.91
25238;BME280;13185;50.872;5.306;2023-06-14T01:53:09;100966.09;;;18.67;55.80
25238;BME280;13185;50.872;5.306;2023-06-14T01:55:36;100964.78;;;18.62;55.58
25238;BME280;13185;50.872;5.306;2023-06-14T01:58:09;100967.09;;;18.57;55.96
25238;BME280;13185;50.872;5.306;2023-06-14T02:00:35;100975.66;;;18.52;55.88
25238;BME280;13185;50.872;5.306;2023-06-14T02:03:01;100970.41;;;18.51;56.14
25238;BME280;13185;50.872;5.306;2023-06-14T02:05:27;100979.69;;;18.48;56.77
25238;BME280;13185;50.872;5.306;2023-06-14T02:07:53;100979.00;;;18.46;56.79
25238;BME280;13185;50.872;5.306;2023-06-14T02:10:18;100977.41;;;18.43;56.66
25238;BME280;13185;50.872;5.306;2023-06-14T02:12:44;100974.69;;;18.43;57.22
25238;BME280;13185;50.872;5.306;2023-06-14T02:15:10;100974.69;;;18.43;57.04
25238;BME280;13185;50.872;5.306;2023-06-14T02:17:42;100975.69;;;18.42;57.48
25238;BME280;13185;50.872;5.306;2023-06-14T02:20:09;100976.28;;;18.46;57.67
25238;BME280;13185;50.872;5.306;2023-06-14T02:22:35;100972.97;;;18.42;57.32
25238;BME280;13185;50.872;5.306;2023-06-14T02:25:00;100974.28;;;18.38;56.91
25238;BME280;13185;50.872;5.306;2023-06-14T02:27:26;100971.16;;;18.33;56.00
25238;BME280;13185;50.872;5.306;2023-06-14T02:29:51;100978.03;;;18.28;56.17
25238;BME280;13185;50.872;5.306;2023-06-14T02:32:17;100982.31;;;18.21;55.99
25238;BME280;13185;50.872;5.306;2023-06-14T02:34:44;100975.34;;;18.18;55.95
25238;BME280;13185;50.872;5.306;2023-06-14T02:37:16;100981.34;;;18.12;56.26
25238;BME280;13185;50.872;5.306;2023-06-14T02:39:41;100980.63;;;18.10;56.21
25238;BME280;13185;50.872;5.306;2023-06-14T02:42:07;100985.50;;;18.06;56.17
25238;BME280;13185;50.872;5.306;2023-06-14T02:44:32;100987.50;;;18.04;56.10
25238;BME280;13185;50.872;5.306;2023-06-14T02:46:59;100984.22;;;18.01;56.41
25238;BME280;13185;50.872;5.306;2023-06-14T02:49:26;100989.06;;;17.97;56.14
25238;BME280;13185;50.872;5.306;2023-06-14T02:51:51;100983.94;;;17.94;56.33
25238;BME280;13185;50.872;5.306;2023-06-14T02:54:17;100991.66;;;17.89;56.33
25238;BME280;13185;50.872;5.306;2023-06-14T02:56:43;100991.09;;;17.85;56.26
25238;BME280;13185;50.872;5.306;2023-06-14T02:59:09;100990.63;;;17.80;56.54
25238;BME280;13185;50.872;5.306;2023-06-14T03:01:35;100998.06;;;17.78;56.57
25238;BME280;13185;50.872;5.306;2023-06-14T03:04:08;100992.94;;;17.75;57.12
25238;BME280;13185;50.872;5.306;2023-06-14T03:06:36;100993.94;;;17.74;57.46
25238;BME280;13185;50.872;5.306;2023-06-14T03:09:03;100994.34;;;17.70;57.24
25238;BME280;13185;50.872;5.306;2023-06-14T03:11:36;101002.75;;;17.67;57.23
25238;BME280;13185;50.872;5.306;2023-06-14T03:14:01;100998.47;;;17.64;57.42
25238;BME280;13185;50.872;5.306;2023-06-14T03:16:30;101003.44;;;17.59;57.57
25238;BME280;13185;50.872;5.306;2023-06-14T03:18:58;101001.03;;;17.56;57.46
25238;BME280;13185;50.872;5.306;2023-06-14T03:21:25;101009.44;;;17.53;57.68
25238;BME280;13185;50.872;5.306;2023-06-14T03:23:54;101011.56;;;17.49;57.92
25238;BME280;13185;50.872;5.306;2023-06-14T03:26:20;101008.28;;;17.46;58.75
25238;BME280;13185;50.872;5.306;2023-06-14T03:28:49;101008.72;;;17.41;58.60
25238;BME280;13185;50.872;5.306;2023-06-14T03:31:15;101018.97;;;17.38;58.07
25238;BME280;13185;50.872;5.306;2023-06-14T03:33:42;101014.69;;;17.35;58.27
25238;BME280;13185;50.872;5.306;2023-06-14T03:36:08;101022.09;;;17.33;58.35
25238;BME280;13185;50.872;5.306;2023-06-14T03:38:34;101031.25;;;17.32;58.61
25238;BME280;13185;50.872;5.306;2023-06-14T03:41:00;101024.22;;;17.29;58.77
25238;BME280;13185;50.872;5.306;2023-06-14T03:43:27;101025.50;;;17.25;58.70
25238;BME280;13185;50.872;5.306;2023-06-14T03:45:53;101020.22;;;17.24;58.70
25238;BME280;13185;50.872;5.306;2023-06-14T03:48:20;101028.63;;;17.21;58.53
25238;BME280;13185;50.872;5.306;2023-06-14T03:50:46;101028.63;;;17.21;59.37
25238;BME280;13185;50.872;5.306;2023-06-14T03:53:12;101025.31;;;17.17;59.51
25238;BME280;13185;50.872;5.306;2023-06-14T03:55:41;101023.63;;;17.16;59.85
25238;BME280;13185;50.872;5.306;2023-06-14T03:58:07;101029.19;;;17.15;60.12
25238;BME280;13185;50.872;5.306;2023-06-14T04:00:32;101031.19;;;17.13;60.25
25238;BME280;13185;50.872;5.306;2023-06-14T04:02:58;101030.31;;;17.12;60.66
25238;BME280;13185;50.872;5.306;2023-06-14T04:05:24;101035.75;;;17.12;60.45
25238;BME280;13185;50.872;5.306;2023-06-14T04:07:53;101039.31;;;17.13;61.10
25238;BME280;13185;50.872;5.306;2023-06-14T04:10:21;101034.75;;;17.13;61.06
25238;BME280;13185;50.872;5.306;2023-06-14T04:12:47;101049.28;;;17.12;61.20
25238;BME280;13185;50.872;5.306;2023-06-14T04:15:12;101053.72;;;17.13;61.39
25238;BME280;13185;50.872;5.306;2023-06-14T04:17:39;101049.00;;;17.15;61.79
25238;BME280;13185;50.872;5.306;2023-06-14T04:20:06;101050.72;;;17.16;62.13
25238;BME280;13185;50.872;5.306;2023-06-14T04:22:34;101052.28;;;17.19;62.46
25238;BME280;13185;50.872;5.306;2023-06-14T04:25:00;101058.47;;;17.21;62.42
25238;BME280;13185;50.872;5.306;2023-06-14T04:27:27;101050.91;;;17.24;63.12
25238;BME280;13185;50.872;5.306;2023-06-14T04:29:53;101050.75;;;17.26;63.48
25238;BME280;13185;50.872;5.306;2023-06-14T04:32:24;101049.50;;;17.30;63.37
25238;BME280;13185;50.872;5.306;2023-06-14T04:34:55;101051.06;;;17.33;63.84
25238;BME280;13185;50.872;5.306;2023-06-14T04:37:23;101053.63;;;17.34;63.59
25238;BME280;13185;50.872;5.306;2023-06-14T04:39:49;101047.06;;;17.37;63.38
25238;BME280;13185;50.872;5.306;2023-06-14T04:42:18;101059.22;;;17.42;63.03
25238;BME280;13185;50.872;5.306;2023-06-14T04:44:46;101058.81;;;17.47;62.98
25238;BME280;13185;50.872;5.306;2023-06-14T04:47:12;101061.13;;;17.51;62.68
25238;BME280;13185;50.872;5.306;2023-06-14T04:49:41;101052.53;;;17.56;62.45
25238;BME280;13185;50.872;5.306;2023-06-14T04:52:07;101061.69;;;17.65;62.36
25238;BME280;13185;50.872;5.306;2023-06-14T04:54:39;101058.19;;;17.74;62.28
25238;BME280;13185;50.872;5.306;2023-06-14T04:57:09;101062.88;;;17.81;62.22
25238;BME280;13185;50.872;5.306;2023-06-14T04:59:40;101065.50;;;17.93;61.90
25238;BME280;13185;50.872;5.306;2023-06-14T05:02:07;101065.22;;;18.05;61.63
25238;BME280;13185;50.872;5.306;2023-06-14T05:04:34;101063.91;;;18.19;61.17
25238;BME280;13185;50.872;5.306;2023-06-14T05:07:00;101071.59;;;18.33;60.89
25238;BME280;13185;50.872;5.306;2023-06-14T05:09:27;101065.16;;;18.44;60.72
25238;BME280;13185;50.872;5.306;2023-06-14T05:11:53;101076.75;;;18.56;59.84
25238;BME280;13185;50.872;5.306;2023-06-14T05:14:20;101070.03;;;18.69;59.81
25238;BME280;13185;50.872;5.306;2023-06-14T05:16:49;101070.56;;;18.83;59.82
25238;BME280;13185;50.872;5.306;2023-06-14T05:19:14;101074.63;;;18.96;59.60
25238;BME280;13185;50.872;5.306;2023-06-14T05:21:41;101069.75;;;19.10;59.55
25238;BME280;13185;50.872;5.306;2023-06-14T05:24:06;101079.97;;;19.25;59.17
25238;BME280;13185;50.872;5.306;2023-06-14T05:26:33;101074.06;;;19.40;58.32
25238;BME280;13185;50.872;5.306;2023-06-14T05:28:59;101061.94;;;19.52;57.50
25238;BME280;13185;50.872;5.306;2023-06-14T05:31:26;101072.91;;;19.70;56.97
25238;BME280;13185;50.872;5.306;2023-06-14T05:33:52;101069.81;;;19.82;56.52
25238;BME280;13185;50.872;5.306;2023-06-14T05:36:19;101069.94;;;19.99;56.54
25238;BME280;13185;50.872;5.306;2023-06-14T05:38:45;101069.28;;;20.14;56.47
25238;BME280;13185;50.872;5.306;2023-06-14T05:41:10;101070.25;;;20.31;55.91
25238;BME280;13185;50.872;5.306;2023-06-14T05:43:36;101071.59;;;20.45;55.03
25238;BME280;13185;50.872;5.306;2023-06-14T05:46:01;101073.59;;;20.61;54.63
25238;BME280;13185;50.872;5.306;2023-06-14T05:48:28;101074.19;;;20.72;54.36
25238;BME280;13185;50.872;5.306;2023-06-14T05:50:53;101072.75;;;20.86;54.16
25238;BME280;13185;50.872;5.306;2023-06-14T05:53:19;101072.13;;;21.00;53.97
25238;BME280;13185;50.872;5.306;2023-06-14T05:55:44;101071.22;;;21.18;53.80
25238;BME280;13185;50.872;5.306;2023-06-14T05:58:10;101081.91;;;21.37;53.32
25238;BME280;13185;50.872;5.306;2023-06-14T06:00:36;101078.91;;;21.56;52.72
25238;BME280;13185;50.872;5.306;2023-06-14T06:03:01;101088.69;;;21.75;52.15
25238;BME280;13185;50.872;5.306;2023-06-14T06:05:27;101088.41;;;21.95;51.58
25238;BME280;13185;50.872;5.306;2023-06-14T06:07:52;101085.34;;;22.06;50.88
25238;BME280;13185;50.872;5.306;2023-06-14T06:10:18;101082.00;;;22.20;50.74
25238;BME280;13185;50.872;5.306;2023-06-14T06:12:43;101080.28;;;22.35;50.03
25238;BME280;13185;50.872;5.306;2023-06-14T06:15:09;101092.94;;;22.53;49.60
25238;BME280;13185;50.872;5.306;2023-06-14T06:17:38;101093.56;;;22.71;49.19
25238;BME280;13185;50.872;5.306;2023-06-14T06:20:05;101089.81;;;22.88;48.91
25238;BME280;13185;50.872;5.306;2023-06-14T06:22:35;101088.41;;;23.09;48.26
25238;BME280;13185;50.872;5.306;2023-06-14T06:25:01;101090.09;;;23.26;47.46
25238;BME280;13185;50.872;5.306;2023-06-14T06:27:27;101098.94;;;23.36;47.29
25238;BME280;13185;50.872;5.306;2023-06-14T06:29:52;101088.28;;;23.41;46.82
25238;BME280;13185;50.872;5.306;2023-06-14T06:32:18;101094.75;;;23.56;46.29
25238;BME280;13185;50.872;5.306;2023-06-14T06:34:43;101085.63;;;23.72;45.91
25238;BME280;13185;50.872;5.306;2023-06-14T06:37:09;101088.09;;;23.90;45.56
25238;BME280;13185;50.872;5.306;2023-06-14T06:39:34;101089.84;;;24.06;44.88
25238;BME280;13185;50.872;5.306;2023-06-14T06:42:00;101088.56;;;24.16;44.94
25238;BME280;13185;50.872;5.306;2023-06-14T06:44:32;101095.19;;;24.30;44.25
25238;BME280;13185;50.872;5.306;2023-06-14T06:46:58;101091.38;;;24.39;44.00
25238;BME280;13185;50.872;5.306;2023-06-14T06:49:24;101090.69;;;24.60;44.27
25238;BME280;13185;50.872;5.306;2023-06-14T06:52:00;101095.59;;;24.80;43.82
25238;BME280;13185;50.872;5.306;2023-06-14T06:54:26;101102.91;;;24.87;43.11
25238;BME280;13185;50.872;5.306;2023-06-14T06:56:51;101107.28;;;24.96;43.25
25238;BME280;13185;50.872;5.306;2023-06-14T06:59:17;101113.19;;;25.08;43.12
25238;BME280;13185;50.872;5.306;2023-06-14T07:01:42;101113.09;;;25.16;42.76
25238;BME280;13185;50.872;5.306;2023-06-14T07:04:08;101120.22;;;25.25;42.18
25238;BME280;13185;50.872;5.306;2023-06-14T07:06:33;101118.09;;;25.42;42.23
25238;BME280;13185;50.872;5.306;2023-06-14T07:08:59;101117.09;;;25.43;41.72
25238;BME280;13185;50.872;5.306;2023-06-14T07:11:27;101132.69;;;25.43;41.86
25238;BME280;13185;50.872;5.306;2023-06-14T07:13:52;101127.66;;;25.61;41.60
25238;BME280;13185;50.872;5.306;2023-06-14T07:16:18;101127.88;;;25.74;41.43
25238;BME280;13185;50.872;5.306;2023-06-14T07:18:43;101139.03;;;25.87;40.66
25238;BME280;13185;50.872;5.306;2023-06-14T07:21:09;101138.38;;;25.85;40.57
25238;BME280;13185;50.872;5.306;2023-06-14T07:23:34;101137.19;;;25.95;40.22
25238;BME280;13185;50.872;5.306;2023-06-14T07:26:00;101133.78;;;26.07;40.13
25238;BME280;13185;50.872;5.306;2023-06-14T07:28:26;101134.97;;;26.19;39.55
25238;BME280;13185;50.872;5.306;2023-06-14T07:30:51;101138.81;;;26.40;39.24
25238;BME280;13185;50.872;5.306;2023-06-14T07:33:17;101141.03;;;26.51;38.70
25238;BME280;13185;50.872;5.306;2023-06-14T07:35:42;101147.09;;;26.46;38.89
25238;BME280;13185;50.872;5.306;2023-06-14T07:38:08;101150.66;;;26.40;38.52
25238;BME280;13185;50.872;5.306;2023-06-14T07:40:33;101141.44;;;26.48;38.44
25238;BME280;13185;50.872;5.306;2023-06-14T07:42:59;101152.16;;;26.64;38.81
25238;BME280;13185;50.872;5.306;2023-06-14T07:45:24;101152.66;;;26.74;38.54
25238;BME280;13185;50.872;5.306;2023-06-14T07:47:50;101152.19;;;26.92;38.27
25238;BME280;13185;50.872;5.306;2023-06-14T07:50:16;101154.22;;;27.05;37.85
25238;BME280;13185;50.872;5.306;2023-06-14T07:52:42;101157.28;;;27.17;37.29
25238;BME280;13185;50.872;5.306;2023-06-14T07:55:08;101164.69;;;27.16;35.94
25238;BME280;13185;50.872;5.306;2023-06-14T07:57:33;101153.81;;;27.08;35.84
25238;BME280;13185;50.872;5.306;2023-06-14T07:59:59;101154.13;;;26.98;36.56
25238;BME280;13185;50.872;5.306;2023-06-14T08:02:24;101167.44;;;26.95;36.25
25238;BME280;13185;50.872;5.306;2023-06-14T08:04:50;101158.41;;;27.01;36.36
25238;BME280;13185;50.872;5.306;2023-06-14T08:07:15;101160.38;;;27.07;36.39
25238;BME280;13185;50.872;5.306;2023-06-14T08:09:41;101163.59;;;27.11;36.40
25238;BME280;13185;50.872;5.306;2023-06-14T08:12:07;101176.03;;;27.07;36.39
25238;BME280;13185;50.872;5.306;2023-06-14T08:14:35;101170.94;;;27.03;36.09
25238;BME280;13185;50.872;5.306;2023-06-14T08:17:00;101167.88;;;26.98;36.50
25238;BME280;13185;50.872;5.306;2023-06-14T08:19:26;101174.22;;;26.71;36.57
25238;BME280;13185;50.872;5.306;2023-06-14T08:21:51;101169.97;;;26.68;36.80
25238;BME280;13185;50.872;5.306;2023-06-14T08:24:21;101167.59;;;26.65;37.07
25238;BME280;13185;50.872;5.306;2023-06-14T08:26:50;101166.03;;;26.56;36.92
25238;BME280;13185;50.872;5.306;2023-06-14T08:29:15;101169.63;;;26.57;36.56
25238;BME280;13185;50.872;5.306;2023-06-14T08:31:41;101166.34;;;26.46;37.10
25238;BME280;13185;50.872;5.306;2023-06-14T08:34:06;101169.13;;;26.32;37.17
25238;BME280;13185;50.872;5.306;2023-06-14T08:36:32;101169.19;;;26.17;37.63
25238;BME280;13185;50.872;5.306;2023-06-14T08:38:57;101175.47;;;26.11;37.76
25238;BME280;13185;50.872;5.306;2023-06-14T08:41:23;101178.28;;;26.17;37.66
25238;BME280;13185;50.872;5.306;2023-06-14T08:43:50;101172.50;;;26.27;37.89
25238;BME280;13185;50.872;5.306;2023-06-14T08:46:17;101166.19;;;26.33;36.75
25238;BME280;13185;50.872;5.306;2023-06-14T08:48:46;101177.50;;;26.24;37.07
25238;BME280;13185;50.872;5.306;2023-06-14T08:51:13;101183.09;;;26.15;36.88
25238;BME280;13185;50.872;5.306;2023-06-14T08:53:42;101178.22;;;26.11;37.15
25238;BME280;13185;50.872;5.306;2023-06-14T08:56:08;101169.84;;;26.19;36.30
25238;BME280;13185;50.872;5.306;2023-06-14T08:58:46;101177.91;;;26.21;36.14
25238;BME280;13185;50.872;5.306;2023-06-14T09:01:13;101171.97;;;26.02;36.42
25238;BME280;13185;50.872;5.306;2023-06-14T09:03:43;101173.75;;;26.10;36.52
25238;BME280;13185;50.872;5.306;2023-06-14T09:06:10;101172.41;;;26.21;36.31
25238;BME280;13185;50.872;5.306;2023-06-14T09:08:42;101177.81;;;26.14;36.63
25238;BME280;13185;50.872;5.306;2023-06-14T09:11:11;101169.84;;;26.19;37.14
25238;BME280;13185;50.872;5.306;2023-06-14T09:13:37;101167.84;;;26.28;36.80
25238;BME280;13185;50.872;5.306;2023-06-14T09:16:03;101176.34;;;26.33;36.12
25238;BME280;13185;50.872;5.306;2023-06-14T09:18:42;101175.28;;;26.49;35.79
25238;BME280;13185;50.872;5.306;2023-06-14T09:21:10;101177.56;;;26.45;35.77
25238;BME280;13185;50.872;5.306;2023-06-14T09:23:37;101179.00;;;26.41;35.92
25238;BME280;13185;50.872;5.306;2023-06-14T09:26:15;101184.91;;;26.38;36.01
25238;BME280;13185;50.872;5.306;2023-06-14T09:28:48;101182.00;;;26.46;35.89
25238;BME280;13185;50.872;5.306;2023-06-14T09:31:16;101191.78;;;26.49;35.40
25238;BME280;13185;50.872;5.306;2023-06-14T09:33:43;101174.44;;;26.48;34.99
25238;BME280;13185;50.872;5.306;2023-06-14T09:36:23;101182.47;;;26.50;35.43
25238;BME280;13185;50.872;5.306;2023-06-14T09:38:59;101183.78;;;26.54;35.63
25238;BME280;13185;50.872;5.306;2023-06-14T09:41:39;101187.06;;;26.64;35.44
25238;BME280;13185;50.872;5.306;2023-06-14T09:44:07;101193.22;;;26.66;35.66
25238;BME280;13185;50.872;5.306;2023-06-14T09:46:33;101186.28;;;26.70;35.21
25238;BME280;13185;50.872;5.306;2023-06-14T09:49:00;101183.66;;;26.62;34.74
25238;BME280;13185;50.872;5.306;2023-06-14T09:51:26;101185.97;;;26.58;34.97
25238;BME280;13185;50.872;5.306;2023-06-14T09:53:53;101188.38;;;26.68;34.61
25238;BME280;13185;50.872;5.306;2023-06-14T09:56:27;101183.97;;;26.73;33.72
25238;BME280;13185;50.872;5.306;2023-06-14T09:58:56;101190.22;;;26.82;34.41
25238;BME280;13185;50.872;5.306;2023-06-14T10:01:26;101189.81;;;26.85;34.34
25238;BME280;13185;50.872;5.306;2023-06-14T10:03:55;101197.28;;;26.91;34.22
25238;BME280;13185;50.872;5.306;2023-06-14T10:06:23;101200.06;;;26.98;33.17
25238;BME280;13185;50.872;5.306;2023-06-14T10:08:52;101194.66;;;26.83;33.85
25238;BME280;13185;50.872;5.306;2023-06-14T10:11:20;101196.81;;;26.66;33.99
25238;BME280;13185;50.872;5.306;2023-06-14T10:13:46;101206.00;;;26.73;33.22
25238;BME280;13185;50.872;5.306;2023-06-14T10:16:16;101205.25;;;26.86;33.20
25238;BME280;13185;50.872;5.306;2023-06-14T10:19:27;101199.97;;;26.85;33.13
25238;BME280;13185;50.872;5.306;2023-06-14T10:22:02;101189.03;;;26.91;33.18
25238;BME280;13185;50.872;5.306;2023-06-14T10:24:44;101198.66;;;27.02;33.03
25238;BME280;13185;50.872;5.306;2023-06-14T10:27:11;101201.00;;;27.05;33.92
25238;BME280;13185;50.872;5.306;2023-06-14T10:32:20;101194.94;;;27.10;33.24
25238;BME280;13185;50.872;5.306;2023-06-14T10:34:53;101208.63;;;27.03;33.10
25238;BME280;13185;50.872;5.306;2023-06-14T10:37:19;101193.03;;;27.10;32.63
25238;BME280;13185;50.872;5.306;2023-06-14T10:39:45;101201.53;;;27.15;32.42
25238;BME280;13185;50.872;5.306;2023-06-14T10:42:11;101197.81;;;27.29;32.59
25238;BME280;13185;50.872;5.306;2023-06-14T10:44:50;101200.00;;;27.41;32.29
25238;BME280;13185;50.872;5.306;2023-06-14T10:47:26;101200.50;;;27.51;32.24
25238;BME280;13185;50.872;5.306;2023-06-14T10:49:57;101204.66;;;27.68;32.66
25238;BME280;13185;50.872;5.306;2023-06-14T10:52:28;101206.84;;;27.79;31.88
25238;BME280;13185;50.872;5.306;2023-06-14T10:57:54;101199.59;;;27.72;31.61
25238;BME280;13185;50.872;5.306;2023-06-14T11:00:28;101197.97;;;27.84;32.21
25238;BME280;13185;50.872;5.306;2023-06-14T11:05:49;101195.63;;;27.81;30.81
25238;BME280;13185;50.872;5.306;2023-06-14T11:10:50;101197.59;;;27.94;30.95
25238;BME280;13185;50.872;5.306;2023-06-14T11:13:16;101195.97;;;28.06;31.53
25238;BME280;13185;50.872;5.306;2023-06-14T11:15:47;101190.50;;;28.19;31.49
25238;BME280;13185;50.872;5.306;2023-06-14T11:18:13;101183.34;;;28.31;31.14
25238;BME280;13185;50.872;5.306;2023-06-14T11:20:39;101190.56;;;28.39;31.05
25238;BME280;13185;50.872;5.306;2023-06-14T11:23:05;101180.41;;;28.53;30.91
25238;BME280;13185;50.872;5.306;2023-06-14T11:25:31;101175.34;;;28.63;30.80
25238;BME280;13185;50.872;5.306;2023-06-14T11:27:57;101184.47;;;28.70;30.10
25238;BME280;13185;50.872;5.306;2023-06-14T11:30:25;101179.19;;;28.68;30.59
25238;BME280;13185;50.872;5.306;2023-06-14T11:32:55;101181.28;;;28.73;30.15
25238;BME280;13185;50.872;5.306;2023-06-14T11:35:24;101168.34;;;28.73;29.90
25238;BME280;13185;50.872;5.306;2023-06-14T11:37:56;101165.78;;;28.72;29.95
25238;BME280;13185;50.872;5.306;2023-06-14T11:40:25;101161.97;;;28.73;30.34
25238;BME280;13185;50.872;5.306;2023-06-14T11:43:01;101160.50;;;28.84;30.36
25238;BME280;13185;50.872;5.306;2023-06-14T11:45:27;101162.22;;;28.91;29.41
25238;BME280;13185;50.872;5.306;2023-06-14T11:47:55;101169.47;;;28.99;29.82
25238;BME280;13185;50.872;5.306;2023-06-14T11:50:22;101170.09;;;29.08;29.43
25238;BME280;13185;50.872;5.306;2023-06-14T11:52:58;101169.84;;;29.16;29.02
25238;BME280;13185;50.872;5.306;2023-06-14T11:55:25;101175.16;;;29.30;28.14
25238;BME280;13185;50.872;5.306;2023-06-14T11:57:52;101161.56;;;29.29;27.78
25238;BME280;13185;50.872;5.306;2023-06-14T12:00:19;101165.38;;;29.28;27.71
25238;BME280;13185;50.872;5.306;2023-06-14T12:02:56;101168.97;;;29.42;27.07
25238;BME280;13185;50.872;5.306;2023-06-14T12:05:22;101169.38;;;29.45;27.39
25238;BME280;13185;50.872;5.306;2023-06-14T12:07:49;101166.66;;;29.52;26.95
25238;BME280;13185;50.872;5.306;2023-06-14T12:10:16;101170.22;;;29.59;27.26
25238;BME280;13185;50.872;5.306;2023-06-14T12:12:42;101168.53;;;29.65;27.22
25238;BME280;13185;50.872;5.306;2023-06-14T12:15:09;101160.38;;;29.83;27.11
25238;BME280;13185;50.872;5.306;2023-06-14T12:17:36;101157.56;;;29.89;27.13
25238;BME280;13185;50.872;5.306;2023-06-14T12:20:08;101154.41;;;29.93;26.74
25238;BME280;13185;50.872;5.306;2023-06-14T12:22:37;101160.31;;;30.03;26.74
25238;BME280;13185;50.872;5.306;2023-06-14T12:25:04;101160.72;;;30.13;26.72
25238;BME280;13185;50.872;5.306;2023-06-14T12:27:30;101164.00;;;30.28;26.83
25238;BME280;13185;50.872;5.306;2023-06-14T12:30:00;101158.63;;;30.40;25.98
25238;BME280;13185;50.872;5.306;2023-06-14T12:32:26;101167.53;;;30.42;26.39
25238;BME280;13185;50.872;5.306;2023-06-14T12:34:52;101154.53;;;30.49;25.72
25238;BME280;13185;50.872;5.306;2023-06-14T12:37:17;101157.28;;;30.49;25.31
25238;BME280;13185;50.872;5.306;2023-06-14T12:39:43;101168.19;;;30.44;25.85
25238;BME280;13185;50.872;5.306;2023-06-14T12:42:08;101158.81;;;30.45;25.70
25238;BME280;13185;50.872;5.306;2023-06-14T12:44:34;101166.22;;;30.51;25.02
25238;BME280;13185;50.872;5.306;2023-06-14T12:47:05;101173.03;;;30.49;25.34
25238;BME280;13185;50.872;5.306;2023-06-14T12:49:31;101165.78;;;30.54;25.57
25238;BME280;13185;50.872;5.306;2023-06-14T12:51:57;101176.09;;;30.72;26.13
25238;BME280;13185;50.872;5.306;2023-06-14T12:54:22;101162.16;;;30.85;25.82
25238;BME280;13185;50.872;5.306;2023-06-14T12:56:51;101163.88;;;30.86;25.57
25238;BME280;13185;50.872;5.306;2023-06-14T12:59:17;101153.56;;;30.93;25.77
25238;BME280;13185;50.872;5.306;2023-06-14T13:01:43;101167.97;;;31.02;25.52
25238;BME280;13185;50.872;5.306;2023-06-14T13:04:10;101163.34;;;30.96;25.83
25238;BME280;13185;50.872;5.306;2023-06-14T13:06:35;101173.47;;;31.09;25.78